You are listening to:
MMMX Twr/App - Mexico City, Mexico

MMMX 290445Z 31006KT 7SM FEW020 SCT080 13/08 A3044 NOSIG RMK 8/530 HZY

If stream doesn't start automatically press the play button
If stream stops then reload player then press play